createdAt,value
2024-03-14T00:02:19.841Z,6.63
2024-03-14T00:05:22.266Z,6.69
2024-03-14T00:08:24.622Z,6.67
2024-03-14T00:11:30.766Z,6.69
2024-03-14T00:14:36.430Z,6.81
2024-03-14T00:17:39.558Z,6.75
2024-03-14T00:20:44.015Z,6.68
2024-03-14T00:23:47.243Z,6.63
2024-03-14T00:26:49.716Z,6.86
2024-03-14T00:29:56.673Z,6.60
2024-03-14T00:33:00.582Z,6.77
2024-03-14T00:36:05.871Z,6.81
2024-03-14T00:39:08.533Z,6.88
2024-03-14T00:42:10.965Z,6.81
2024-03-14T00:45:16.284Z,6.94
2024-03-14T00:48:18.817Z,6.92
2024-03-14T00:51:21.215Z,6.97
2024-03-14T00:54:23.658Z,6.81
2024-03-14T00:57:26.329Z,6.83
2024-03-14T01:00:30.980Z,6.90
2024-03-14T01:03:33.782Z,6.97
2024-03-14T01:06:36.424Z,6.86
2024-03-14T01:09:40.718Z,6.74
2024-03-14T01:12:43.156Z,6.77
2024-03-14T01:15:45.821Z,6.92
2024-03-14T01:18:51.459Z,6.81
2024-03-14T01:21:54.011Z,6.76
2024-03-14T01:24:56.389Z,6.94
2024-03-14T01:27:59.026Z,6.92
2024-03-14T01:31:01.538Z,6.79
2024-03-14T01:34:03.950Z,6.93
2024-03-14T01:37:11.961Z,6.93
2024-03-14T01:40:14.605Z,6.77
2024-03-14T01:43:17.098Z,6.75
2024-03-14T01:46:19.494Z,6.82
2024-03-14T01:49:21.870Z,6.79
2024-03-14T01:52:27.050Z,6.82
2024-03-14T01:55:29.782Z,6.65
2024-03-14T01:58:33.183Z,6.81
2024-03-14T02:01:35.625Z,6.86
2024-03-14T02:05:11.501Z,6.97
2024-03-14T02:08:14.414Z,6.85
2024-03-14T02:11:16.834Z,6.84
2024-03-14T02:14:19.227Z,6.94
2024-03-14T02:17:21.703Z,6.82
2024-03-14T02:20:24.552Z,6.71
2024-03-14T02:23:26.997Z,6.85
2024-03-14T02:26:29.601Z,6.85
2024-03-14T02:29:31.969Z,6.79
2024-03-14T02:32:34.600Z,6.87
2024-03-14T02:35:37.046Z,6.81
2024-03-14T02:38:39.603Z,6.83
2024-03-14T02:41:42.246Z,6.97
2024-03-14T02:44:45.276Z,6.90
2024-03-14T02:47:49.165Z,6.92
2024-03-14T02:50:51.722Z,6.82
2024-03-14T02:53:54.301Z,6.91
2024-03-14T02:56:57.063Z,6.92
2024-03-14T02:59:59.504Z,6.87
2024-03-14T03:03:01.883Z,6.72
2024-03-14T03:06:13.262Z,6.76
2024-03-14T03:09:19.013Z,6.82
2024-03-14T03:12:21.433Z,6.72
2024-03-14T03:15:24.843Z,6.86
2024-03-14T03:18:28.001Z,6.93
2024-03-14T03:21:30.427Z,6.93
2024-03-14T03:24:33.505Z,7.05
2024-03-14T03:27:35.958Z,6.89
2024-03-14T03:30:38.901Z,7.03
2024-03-14T03:33:41.926Z,6.88
2024-03-14T03:36:47.762Z,7.05
2024-03-14T03:39:50.484Z,6.95
2024-03-14T03:42:54.529Z,7.04
2024-03-14T03:45:58.381Z,7.01
2024-03-14T03:49:00.936Z,6.93
2024-03-14T03:52:04.223Z,6.90
2024-03-14T03:55:07.618Z,7.01
2024-03-14T03:58:10.472Z,6.89
2024-03-14T04:01:18.073Z,6.89
2024-03-14T04:04:20.470Z,7.04
2024-03-14T04:07:22.953Z,6.97
2024-03-14T04:10:25.450Z,7.04
2024-03-14T04:13:29.484Z,6.87
2024-03-14T04:16:33.128Z,6.97
2024-03-14T04:19:35.882Z,7.06
2024-03-14T04:22:41.173Z,7.00
2024-03-14T04:25:43.569Z,6.97
2024-03-14T04:28:46.430Z,6.94
2024-03-14T04:31:48.778Z,6.95
2024-03-14T04:34:51.563Z,6.94
2024-03-14T04:37:53.927Z,6.94
2024-03-14T04:40:57.446Z,6.85
2024-03-14T04:43:59.842Z,6.95
2024-03-14T04:47:04.721Z,6.85
2024-03-14T04:50:11.075Z,6.98
2024-03-14T04:53:13.983Z,6.86
2024-03-14T04:56:16.817Z,6.96
2024-03-14T04:59:20.371Z,6.92
2024-03-14T05:02:23.498Z,6.87
2024-03-14T05:05:25.896Z,6.95
2024-03-14T05:08:28.235Z,6.93
2024-03-14T05:11:30.615Z,7.00
2024-03-14T05:14:32.953Z,6.75
2024-03-14T05:17:36.055Z,6.97
2024-03-14T05:20:38.590Z,6.85
2024-03-14T05:23:41.157Z,6.94
2024-03-14T05:26:44.483Z,7.04
2024-03-14T05:29:47.633Z,6.92
2024-03-14T05:32:52.422Z,7.05
2024-03-14T05:35:54.994Z,6.90
2024-03-14T05:38:59.337Z,7.11
2024-03-14T05:42:02.271Z,7.01
2024-03-14T05:45:05.908Z,6.99
2024-03-14T05:48:16.543Z,7.16
2024-03-14T05:51:19.521Z,7.09
2024-03-14T05:54:22.043Z,7.22
2024-03-14T05:57:24.462Z,7.20
2024-03-14T06:00:26.855Z,7.16
2024-03-14T06:03:30.170Z,7.26
2024-03-14T06:06:33.118Z,7.14
2024-03-14T06:09:43.078Z,7.18
2024-03-14T06:12:46.765Z,7.07
2024-03-14T06:15:51.417Z,7.26
2024-03-14T06:18:54.348Z,7.37
2024-03-14T06:21:58.175Z,7.82
2024-03-14T06:25:00.742Z,8.05
2024-03-14T06:28:06.580Z,8.51
2024-03-14T06:31:09.000Z,8.38
2024-03-14T06:34:11.552Z,8.23
2024-03-14T06:37:13.927Z,8.34
2024-03-14T06:40:16.530Z,8.33
2024-03-14T06:43:21.161Z,8.81
2024-03-14T06:46:27.455Z,10.05
2024-03-14T06:49:30.302Z,9.34
2024-03-14T06:52:32.689Z,9.19
2024-03-14T06:55:35.196Z,8.81
2024-03-14T06:58:39.428Z,9.09
2024-03-14T07:01:42.217Z,9.47
2024-03-14T07:04:45.349Z,10.30
2024-03-14T07:07:47.746Z,11.33
2024-03-14T07:10:53.051Z,13.08
2024-03-14T07:14:01.313Z,13.57
2024-03-14T07:17:03.937Z,15.73
2024-03-14T07:20:10.630Z,16.62
2024-03-14T07:23:14.729Z,16.27
2024-03-14T07:26:23.901Z,18.23
2024-03-14T07:29:26.617Z,18.05
2024-03-14T07:32:29.482Z,18.95
2024-03-14T07:35:32.019Z,15.67
2024-03-14T07:38:35.496Z,13.57
2024-03-14T07:41:39.336Z,13.06
2024-03-14T07:44:46.637Z,13.47
2024-03-14T07:47:54.288Z,12.93
2024-03-14T07:51:02.440Z,12.62
2024-03-14T07:54:05.620Z,12.96
2024-03-14T07:57:09.021Z,12.92
2024-03-14T08:00:16.870Z,12.61
2024-03-14T08:03:20.754Z,12.35
2024-03-14T08:06:25.842Z,12.14
2024-03-14T08:09:28.699Z,12.26
2024-03-14T08:12:33.555Z,12.98
2024-03-14T08:15:43.541Z,13.50
2024-03-14T08:18:48.139Z,13.41
2024-03-14T08:21:51.064Z,13.69
2024-03-14T08:24:54.072Z,15.03
2024-03-14T08:27:56.470Z,17.86
2024-03-14T08:30:59.639Z,19.90
2024-03-14T08:34:04.489Z,19.58
2024-03-14T08:37:08.205Z,20.36
2024-03-14T08:40:13.438Z,19.73
2024-03-14T08:43:17.600Z,20.41
2024-03-14T08:46:22.100Z,20.32
2024-03-14T08:49:24.494Z,20.48
2024-03-14T08:52:32.624Z,21.30
2024-03-14T08:55:35.034Z,21.31
2024-03-14T08:58:37.438Z,21.08
2024-03-14T09:01:40.899Z,21.23
2024-03-14T09:04:47.488Z,21.88
2024-03-14T09:07:49.976Z,20.96
2024-03-14T09:10:54.594Z,21.03
2024-03-14T09:13:57.195Z,19.94
2024-03-14T09:16:59.807Z,20.38
2024-03-14T09:20:07.310Z,21.16
2024-03-14T09:23:17.194Z,20.76
2024-03-14T09:26:19.687Z,20.22
2024-03-14T09:29:25.207Z,20.61
2024-03-14T09:32:31.283Z,19.70
2024-03-14T09:35:34.658Z,17.47
2024-03-14T09:38:37.539Z,17.79
2024-03-14T09:41:40.736Z,18.15
2024-03-14T09:44:44.884Z,19.20
2024-03-14T09:47:49.713Z,20.38
2024-03-14T09:50:57.335Z,21.34
2024-03-14T09:54:03.066Z,21.57
2024-03-14T09:57:06.918Z,22.06
2024-03-14T10:00:15.007Z,22.48
2024-03-14T10:03:20.940Z,22.37
2024-03-14T10:06:24.210Z,21.22
2024-03-14T10:09:28.574Z,21.87
2024-03-14T10:12:31.349Z,22.44
2024-03-14T10:15:39.177Z,21.80
2024-03-14T10:18:42.859Z,22.55
2024-03-14T10:21:47.095Z,22.60
2024-03-14T10:24:49.540Z,22.17
2024-03-14T10:31:07.108Z,21.84
2024-03-14T10:34:09.950Z,22.13
2024-03-14T10:37:16.152Z,22.62
2024-03-14T10:40:32.047Z,22.98
2024-03-14T10:43:38.720Z,22.06
2024-03-14T10:46:43.407Z,22.67
2024-03-14T10:49:48.355Z,23.19
2024-03-14T10:52:51.906Z,22.44
2024-03-14T10:55:56.482Z,23.34
2024-03-14T10:59:00.628Z,23.26
2024-03-14T11:02:05.353Z,21.58
2024-03-14T11:05:09.702Z,19.78
2024-03-14T11:08:12.816Z,19.24
2024-03-14T11:11:20.426Z,18.18
2024-03-14T11:14:36.037Z,17.29
2024-03-14T11:17:42.250Z,16.87
2024-03-14T11:20:54.341Z,16.31
2024-03-14T11:23:57.801Z,16.62
2024-03-14T11:27:05.528Z,17.08
2024-03-14T11:30:17.171Z,17.39
2024-03-14T11:33:20.692Z,16.84
2024-03-14T11:36:23.420Z,16.73
2024-03-14T11:39:27.816Z,16.71
2024-03-14T11:42:32.233Z,17.89
2024-03-14T11:45:36.557Z,17.73
2024-03-14T11:48:40.195Z,17.11
2024-03-14T11:51:43.078Z,17.18
2024-03-14T11:54:46.212Z,17.49
2024-03-14T11:57:49.348Z,16.57
2024-03-14T12:00:54.995Z,15.25
2024-03-14T12:03:59.376Z,15.05
2024-03-14T12:07:04.704Z,14.91
2024-03-14T12:10:10.764Z,14.46
2024-03-14T12:13:17.253Z,14.37
2024-03-14T12:16:20.736Z,14.14
2024-03-14T12:19:24.095Z,14.03
2024-03-14T12:22:26.811Z,14.03
2024-03-14T12:25:34.222Z,13.65
2024-03-14T12:28:36.950Z,13.44
2024-03-14T12:31:42.152Z,13.86
2024-03-14T12:34:44.667Z,13.68
2024-03-14T12:37:49.850Z,13.75
2024-03-14T12:41:01.134Z,13.94
2024-03-14T12:44:05.563Z,14.19
2024-03-14T12:47:09.154Z,14.18
2024-03-14T12:50:20.902Z,14.67
2024-03-14T12:53:25.777Z,14.52
2024-03-14T12:56:29.601Z,14.30
2024-03-14T12:59:37.139Z,14.26
2024-03-14T13:02:43.815Z,14.49
2024-03-14T13:05:57.043Z,14.39
2024-03-14T13:09:15.724Z,14.42
2024-03-14T13:12:23.732Z,14.39
2024-03-14T13:15:26.392Z,14.58
2024-03-14T13:18:28.911Z,14.62
2024-03-14T13:21:44.690Z,14.50
2024-03-14T13:24:51.158Z,14.28
2024-03-14T13:27:53.665Z,14.46
2024-03-14T13:30:56.118Z,14.45
2024-03-14T13:34:01.190Z,14.61
2024-03-14T13:37:04.266Z,14.57
2024-03-14T13:43:24.520Z,14.07
2024-03-14T13:46:32.780Z,13.80
2024-03-14T13:49:39.143Z,13.78
2024-03-14T13:52:42.054Z,13.76
2024-03-14T13:55:48.638Z,13.55
2024-03-14T13:58:53.441Z,13.44
2024-03-14T14:01:55.898Z,13.25
2024-03-14T14:04:58.297Z,13.09
2024-03-14T14:08:01.856Z,13.02
2024-03-14T14:11:05.375Z,12.58
2024-03-14T14:14:08.802Z,12.51
2024-03-14T14:17:11.377Z,12.59
2024-03-14T14:20:13.851Z,12.45
2024-03-14T14:23:19.381Z,12.29
2024-03-14T14:26:23.510Z,12.49
2024-03-14T14:29:26.514Z,12.62
2024-03-14T14:32:29.056Z,12.61
2024-03-14T14:35:31.999Z,12.55
2024-03-14T14:38:34.475Z,12.63
2024-03-14T14:41:37.668Z,12.57
2024-03-14T14:44:40.344Z,12.61
2024-03-14T14:47:42.771Z,12.66
2024-03-14T14:50:45.231Z,12.60
2024-03-14T14:53:48.862Z,12.59
2024-03-14T14:56:51.217Z,12.65
2024-03-14T14:59:53.820Z,12.62
2024-03-14T15:02:56.702Z,12.75
2024-03-14T15:05:59.291Z,12.46
2024-03-14T15:09:01.797Z,12.31
2024-03-14T15:12:05.686Z,12.36
2024-03-14T15:15:12.943Z,12.54
2024-03-14T15:18:15.534Z,12.29
2024-03-14T15:21:19.179Z,12.42
2024-03-14T15:24:21.737Z,12.21
2024-03-14T15:27:24.288Z,12.16
2024-03-14T15:30:33.782Z,12.14
2024-03-14T15:33:37.024Z,11.84
2024-03-14T15:36:39.605Z,11.78
2024-03-14T15:39:43.410Z,11.93
2024-03-14T15:42:46.358Z,11.83
2024-03-14T15:45:49.781Z,11.55
2024-03-14T15:48:52.415Z,11.56
2024-03-14T15:51:55.910Z,11.55
2024-03-14T15:54:58.720Z,11.45
2024-03-14T15:58:01.165Z,11.33
2024-03-14T16:01:04.150Z,11.26
2024-03-14T16:04:09.206Z,11.21
2024-03-14T16:07:12.766Z,11.28
2024-03-14T16:10:16.352Z,11.26
2024-03-14T16:13:19.072Z,11.07
2024-03-14T16:16:23.422Z,11.09
2024-03-14T16:19:27.229Z,10.90
2024-03-14T16:22:29.707Z,10.84
2024-03-14T16:25:36.176Z,10.68
2024-03-14T16:28:39.408Z,10.51
2024-03-14T16:31:42.666Z,10.68
2024-03-14T16:34:46.045Z,10.51
2024-03-14T16:37:48.736Z,10.38
2024-03-14T16:40:52.925Z,10.47
2024-03-14T16:43:55.997Z,10.42
2024-03-14T16:46:58.471Z,10.27
2024-03-14T16:50:00.850Z,10.16
2024-03-14T16:53:06.827Z,10.25
2024-03-14T16:56:13.077Z,10.36
2024-03-14T16:59:15.656Z,10.29
2024-03-14T17:02:18.018Z,10.16
2024-03-14T17:05:21.324Z,10.16
2024-03-14T17:08:24.716Z,10.07
2024-03-14T17:11:27.247Z,10.10
2024-03-14T17:14:29.839Z,10.20
2024-03-14T17:17:32.258Z,10.16
2024-03-14T17:20:36.354Z,10.11
2024-03-14T17:23:39.381Z,10.01
2024-03-14T17:26:43.891Z,10.02
2024-03-14T17:29:46.359Z,10.06
2024-03-14T17:32:48.778Z,10.09
2024-03-14T17:35:52.154Z,10.00
2024-03-14T17:38:54.562Z,10.02
2024-03-14T17:41:57.049Z,10.01
2024-03-14T17:44:59.958Z,9.83
2024-03-14T17:48:02.536Z,9.86
2024-03-14T17:51:06.304Z,9.82
2024-03-14T17:54:09.053Z,9.71
2024-03-14T17:57:11.903Z,9.93
2024-03-14T18:00:17.768Z,9.73
2024-03-14T18:03:21.001Z,9.71
2024-03-14T18:06:23.561Z,9.70
2024-03-14T18:09:30.779Z,9.84
2024-03-14T18:12:33.296Z,9.49
2024-03-14T18:15:36.213Z,9.61
2024-03-14T18:18:39.027Z,9.49
2024-03-14T18:21:43.235Z,9.36
2024-03-14T18:24:46.081Z,9.46
2024-03-14T18:27:51.029Z,9.52
2024-03-14T18:30:54.239Z,9.58
2024-03-14T18:33:56.872Z,9.29
2024-03-14T18:36:59.379Z,9.31
2024-03-14T18:40:01.808Z,9.44
2024-03-14T18:43:07.252Z,9.52
2024-03-14T18:46:13.130Z,9.58
2024-03-14T18:49:22.689Z,9.25
2024-03-14T18:52:25.656Z,9.53
2024-03-14T18:55:29.387Z,9.38
2024-03-14T18:58:32.248Z,9.46
2024-03-14T19:01:34.803Z,9.45
2024-03-14T19:04:37.332Z,9.55
2024-03-14T19:07:41.133Z,9.45
2024-03-14T19:10:43.492Z,9.33
2024-03-14T19:13:49.809Z,9.50
2024-03-14T19:16:55.186Z,9.42
2024-03-14T19:19:58.405Z,9.24
2024-03-14T19:23:03.784Z,9.54
2024-03-14T19:26:07.058Z,9.39
2024-03-14T19:29:10.163Z,9.39
2024-03-14T19:32:13.938Z,9.38
2024-03-14T19:35:17.367Z,9.33
2024-03-14T19:38:21.101Z,9.11
2024-03-14T19:41:24.142Z,9.28
2024-03-14T19:44:29.420Z,9.26
2024-03-14T19:47:32.405Z,9.12
2024-03-14T19:50:35.286Z,9.09
2024-03-14T19:53:38.031Z,9.22
2024-03-14T19:56:40.735Z,9.29
2024-03-14T19:59:43.223Z,9.15
2024-03-14T20:02:48.056Z,9.21
2024-03-14T20:05:50.679Z,9.07
2024-03-14T20:08:53.301Z,9.25
2024-03-14T20:11:57.789Z,8.95
2024-03-14T20:15:01.293Z,9.02
2024-03-14T20:18:04.433Z,9.03
2024-03-14T20:21:06.943Z,9.04
2024-03-14T20:24:11.187Z,8.82
2024-03-14T20:27:14.209Z,8.76
2024-03-14T20:30:16.695Z,8.68
2024-03-14T20:33:19.862Z,8.79
2024-03-14T20:36:23.770Z,8.65
2024-03-14T20:39:26.349Z,8.71
2024-03-14T20:42:33.292Z,8.87
2024-03-14T20:45:36.500Z,8.53
2024-03-14T20:48:39.323Z,8.58
2024-03-14T20:51:41.973Z,8.48
2024-03-14T20:54:50.713Z,8.34
2024-03-14T20:58:01.231Z,8.28
2024-03-14T21:01:03.821Z,8.36
2024-03-14T21:04:09.658Z,8.30
2024-03-14T21:07:12.092Z,8.23
2024-03-14T21:10:21.688Z,8.25
2024-03-14T21:13:28.854Z,8.14
2024-03-14T21:16:36.314Z,8.17
2024-03-14T21:19:38.836Z,8.06
2024-03-14T21:22:41.704Z,7.88
2024-03-14T21:25:44.187Z,7.77
2024-03-14T21:28:46.614Z,7.70
2024-03-14T21:31:48.983Z,7.63
2024-03-14T21:34:51.878Z,7.99
2024-03-14T21:37:54.623Z,7.92
2024-03-14T21:40:57.221Z,7.75
2024-03-14T21:43:59.645Z,7.48
2024-03-14T21:47:02.053Z,7.67
2024-03-14T21:50:05.194Z,7.52
2024-03-14T21:53:07.676Z,7.35
2024-03-14T21:56:10.265Z,7.41
2024-03-14T21:59:12.977Z,7.45
2024-03-14T22:02:16.341Z,7.24
2024-03-14T22:05:19.988Z,7.25
2024-03-14T22:08:22.397Z,7.40
2024-03-14T22:11:27.050Z,7.36
2024-03-14T22:14:29.742Z,7.37
2024-03-14T22:17:32.446Z,7.41
2024-03-14T22:20:35.022Z,7.12
2024-03-14T22:23:37.552Z,7.16
2024-03-14T22:26:41.731Z,7.05
2024-03-14T22:29:44.899Z,7.16
2024-03-14T22:32:48.201Z,6.87
2024-03-14T22:35:50.771Z,6.89
2024-03-14T22:38:53.155Z,6.84
2024-03-14T22:41:55.652Z,6.79
2024-03-14T22:44:58.590Z,6.80
2024-03-14T22:48:01.074Z,6.85
2024-03-14T22:51:03.838Z,6.85
2024-03-14T22:54:06.323Z,6.76
2024-03-14T22:57:09.570Z,7.02
2024-03-14T23:00:37.606Z,6.62
2024-03-14T23:03:40.068Z,6.73
2024-03-14T23:06:42.616Z,6.94
2024-03-14T23:09:45.228Z,6.67
2024-03-14T23:12:47.969Z,6.76
2024-03-14T23:15:52.039Z,6.54
2024-03-14T23:18:54.550Z,6.70
2024-03-14T23:21:56.969Z,6.80
2024-03-14T23:24:59.401Z,6.89
2024-03-14T23:28:02.369Z,6.77
2024-03-14T23:31:04.903Z,6.69
2024-03-14T23:34:07.634Z,6.73
2024-03-14T23:37:10.085Z,6.71
2024-03-14T23:40:13.877Z,6.71
2024-03-14T23:43:16.283Z,6.72
2024-03-14T23:46:19.369Z,6.72
2024-03-14T23:49:21.748Z,6.55
2024-03-14T23:52:24.800Z,6.67
2024-03-14T23:55:27.322Z,6.62
2024-03-14T23:58:29.861Z,6.60
